Time;durP1;ratioP1;P1;durP2;ratioP2;P2;SDS_P1;SDS_P2;PMS_P1;PMS_P2;Temp;Humidity;BMP_temperature;BMP_pressure;BME280_temperature;BME280_humidity;BME280_pressure;Samples;Min_cycle;Max_cycle;Signal;HPM_P1;HPM_P2
2022/06/30 00:00:52;;;;;;;15.55;13.40;;;19.90;99.90;;;;;;5040710;28;20646;-81
2022/06/30 00:03:19;;;;;;;15.32;13.88;;;19.90;99.90;;;;;;5040027;28;20221;-80
2022/06/30 00:05:46;;;;;;;16.33;14.30;;;19.90;99.90;;;;;;5037445;28;20214;-82
2022/06/30 00:08:12;;;;;;;14.77;13.38;;;19.90;99.90;;;;;;5038816;28;20247;-82
2022/06/30 00:10:39;;;;;;;14.25;12.85;;;19.90;99.90;;;;;;5037703;28;20271;-82
2022/06/30 00:13:06;;;;;;;14.90;13.30;;;19.80;99.90;;;;;;5037358;28;20235;-82
2022/06/30 00:15:35;;;;;;;15.25;13.75;;;19.70;99.90;;;;;;5040560;28;20228;-78
2022/06/30 00:18:02;;;;;;;14.45;12.75;;;19.70;99.90;;;;;;5036784;28;20255;-81
2022/06/30 00:20:29;;;;;;;16.83;14.43;;;19.60;99.90;;;;;;5038773;28;20549;-80
2022/06/30 00:22:56;;;;;;;15.93;14.25;;;19.60;99.90;;;;;;5036237;28;20225;-81
2022/06/30 00:25:23;;;;;;;16.55;14.95;;;19.60;99.90;;;;;;5038876;28;20210;-81
2022/06/30 00:27:50;;;;;;;16.73;14.93;;;19.60;99.90;;;;;;5035245;28;20214;-83
2022/06/30 00:30:17;;;;;;;14.63;13.27;;;19.50;99.90;;;;;;5040348;28;20213;-81
2022/06/30 00:32:44;;;;;;;17.05;15.23;;;19.50;99.90;;;;;;5036263;28;20283;-80
2022/06/30 00:35:11;;;;;;;16.60;15.00;;;19.50;99.90;;;;;;5039037;28;20214;-80
2022/06/30 00:37:37;;;;;;;16.10;14.60;;;19.40;99.90;;;;;;5037505;28;20206;-81
2022/06/30 00:40:05;;;;;;;17.63;15.85;;;19.40;99.90;;;;;;5039469;28;20236;-81
2022/06/30 00:42:31;;;;;;;18.67;16.45;;;19.40;99.90;;;;;;5036206;28;20216;-81
2022/06/30 00:44:58;;;;;;;17.85;16.05;;;19.40;99.90;;;;;;5067611;28;20205;-80
2022/06/30 00:47:26;;;;;;;17.33;15.60;;;19.30;99.90;;;;;;5036750;28;20288;-81
2022/06/30 00:49:53;;;;;;;16.25;14.65;;;19.30;99.90;;;;;;5038686;28;20224;-81
2022/06/30 00:52:23;;;;;;;17.50;15.35;;;19.30;99.90;;;;;;5035356;28;20209;-81
2022/06/30 00:54:52;;;;;;;16.95;15.25;;;19.20;99.90;;;;;;5038446;28;20756;-81
2022/06/30 00:57:22;;;;;;;18.38;16.67;;;19.20;99.90;;;;;;5037862;28;20228;-81
2022/06/30 00:59:53;;;;;;;18.23;16.47;;;19.10;99.90;;;;;;5036663;28;20217;-81
2022/06/30 01:02:20;;;;;;;20.20;18.10;;;19.10;99.90;;;;;;5040246;28;20237;-81
2022/06/30 01:04:49;;;;;;;17.35;15.57;;;19.00;99.90;;;;;;5036586;28;20241;-81
2022/06/30 01:07:17;;;;;;;18.40;16.65;;;19.00;99.90;;;;;;5039793;28;20286;-81
2022/06/30 01:12:42;;;;;;;17.27;15.63;;;18.90;99.90;;;;;;5035774;28;20210;-82
2022/06/30 01:15:10;;;;;;;18.52;16.63;;;18.90;99.90;;;;;;5037669;28;20278;-82
2022/06/30 01:17:37;;;;;;;19.17;17.30;;;18.80;99.90;;;;;;5034816;28;20273;-82
2022/06/30 01:20:04;;;;;;;17.98;16.45;;;18.80;99.90;;;;;;5035295;28;20635;-81
2022/06/30 01:22:31;;;;;;;19.43;17.40;;;18.70;99.90;;;;;;5035732;28;20251;-81
2022/06/30 01:24:58;;;;;;;19.00;17.20;;;18.70;99.90;;;;;;5037952;28;20262;-82
2022/06/30 01:27:25;;;;;;;18.90;17.10;;;18.60;99.90;;;;;;5032983;28;20245;-81
2022/06/30 01:29:52;;;;;;;19.77;17.87;;;18.60;99.90;;;;;;5036945;28;20220;-82
2022/06/30 01:32:19;;;;;;;17.92;16.25;;;18.60;99.90;;;;;;5039871;28;20259;-82
2022/06/30 01:34:46;;;;;;;18.87;17.07;;;18.50;99.90;;;;;;5041683;28;20209;-83
2022/06/30 01:37:13;;;;;;;20.20;18.17;;;18.50;99.90;;;;;;5037265;28;20279;-80
2022/06/30 01:39:41;;;;;;;18.63;16.80;;;18.50;99.90;;;;;;5040797;28;20205;-81
2022/06/30 01:42:08;;;;;;;19.50;17.57;;;18.40;99.90;;;;;;5039471;28;20312;-82
2022/06/30 01:44:35;;;;;;;19.13;17.33;;;18.40;99.90;;;;;;5038379;28;20205;-81
2022/06/30 01:47:02;;;;;;;17.93;16.23;;;18.40;99.90;;;;;;5040602;28;20239;-82
2022/06/30 01:49:29;;;;;;;18.13;16.47;;;18.40;99.90;;;;;;5027364;28;20753;-81
2022/06/30 01:51:56;;;;;;;19.97;17.97;;;18.30;99.90;;;;;;5030830;28;20217;-81
2022/06/30 01:54:23;;;;;;;18.80;17.10;;;18.30;99.90;;;;;;5031417;28;20252;-81
2022/06/30 01:56:50;;;;;;;17.93;16.23;;;18.20;99.90;;;;;;5030446;28;20319;-82
2022/06/30 01:59:17;;;;;;;18.07;16.23;;;18.20;99.90;;;;;;5030666;28;20233;-81
2022/06/30 02:01:44;;;;;;;18.23;16.63;;;18.20;99.90;;;;;;5040726;28;20252;-82
2022/06/30 02:06:56;;;;;;;18.90;16.97;;;18.20;99.90;;;;;;5030537;28;20529;-82
2022/06/30 02:09:23;;;;;;;17.93;16.03;;;18.20;99.90;;;;;;5030814;28;20232;-82
2022/06/30 02:12:44;;;;;;;18.50;16.80;;;18.20;99.90;;;;;;5030876;28;20240;-81
2022/06/30 02:14:36;;;;;;;16.90;15.10;;;18.20;99.90;;;;;;5030300;28;20206;-81
2022/06/30 02:17:04;;;;;;;18.30;16.50;;;18.10;99.90;;;;;;5030559;28;20244;-82
2022/06/30 02:19:30;;;;;;;17.90;16.27;;;18.10;99.90;;;;;;5035738;28;20272;-82
2022/06/30 02:21:57;;;;;;;18.90;17.13;;;18.00;99.90;;;;;;5038897;28;20233;-81
2022/06/30 02:24:24;;;;;;;20.00;17.97;;;18.00;99.90;;;;;;5039515;28;20210;-80
2022/06/30 02:26:51;;;;;;;19.57;16.57;;;18.00;99.90;;;;;;5043216;28;20213;-81
2022/06/30 02:29:18;;;;;;;17.53;15.83;;;18.00;99.90;;;;;;5030619;28;20205;-81
2022/06/30 02:31:44;;;;;;;17.67;15.97;;;18.00;99.90;;;;;;5029914;28;20291;-82
2022/06/30 02:34:11;;;;;;;18.07;15.43;;;18.00;99.90;;;;;;5030123;28;20230;-81
2022/06/30 02:36:38;;;;;;;16.90;15.37;;;17.90;99.90;;;;;;5030405;28;20286;-81
2022/06/30 02:39:05;;;;;;;18.03;16.33;;;17.90;99.90;;;;;;5030431;28;20232;-81
2022/06/30 02:41:32;;;;;;;17.00;15.43;;;17.90;99.90;;;;;;5061551;28;20214;-83
2022/06/30 02:44:00;;;;;;;18.03;16.30;;;17.90;99.90;;;;;;5034032;28;20300;-80
2022/06/30 02:46:26;;;;;;;17.03;15.37;;;17.90;99.90;;;;;;5041040;28;20217;-82
2022/06/30 02:48:53;;;;;;;18.07;16.37;;;17.90;99.90;;;;;;5041264;28;20224;-81
2022/06/30 02:51:20;;;;;;;17.70;15.83;;;17.80;99.90;;;;;;5037155;28;20301;-82
2022/06/30 02:53:47;;;;;;;17.30;15.53;;;17.80;99.90;;;;;;5040899;28;20267;-81
2022/06/30 02:56:14;;;;;;;16.37;14.73;;;17.80;99.90;;;;;;5038324;28;20229;-83
2022/06/30 02:58:44;;;;;;;17.50;15.80;;;17.80;99.90;;;;;;5034600;28;20229;-82
2022/06/30 03:01:10;;;;;;;18.20;16.57;;;17.90;99.90;;;;;;5036577;28;20202;-82
2022/06/30 03:03:37;;;;;;;18.83;17.03;;;17.80;99.90;;;;;;5038209;28;20205;-82
2022/06/30 03:06:04;;;;;;;19.33;17.47;;;17.70;99.90;;;;;;5040822;28;20493;-81
2022/06/30 03:08:32;;;;;;;18.83;17.10;;;17.70;99.90;;;;;;5043798;28;20221;-81
2022/06/30 03:10:59;;;;;;;17.97;16.07;;;17.60;99.90;;;;;;5037678;28;20213;-82
2022/06/30 03:13:26;;;;;;;18.33;16.30;;;17.50;99.90;;;;;;5037860;28;20230;-81
2022/06/30 03:15:52;;;;;;;18.30;16.50;;;17.50;99.90;;;;;;5036304;28;20197;-81
2022/06/30 03:18:19;;;;;;;20.40;18.30;;;17.50;99.90;;;;;;5039807;28;20204;-82
2022/06/30 03:20:46;;;;;;;20.47;18.40;;;17.50;99.90;;;;;;5039290;28;20241;-84
2022/06/30 03:23:13;;;;;;;18.90;16.90;;;17.50;99.90;;;;;;5040678;28;20251;-82
2022/06/30 03:25:40;;;;;;;18.27;16.57;;;17.50;99.90;;;;;;5037034;28;20628;-81
2022/06/30 03:28:07;;;;;;;17.60;15.97;;;17.50;99.90;;;;;;5039108;28;20221;-80
2022/06/30 03:30:39;;;;;;;20.07;18.27;;;17.50;99.90;;;;;;5039221;28;20233;-81
2022/06/30 03:33:06;;;;;;;18.97;17.07;;;17.40;99.90;;;;;;5041749;28;20216;-82
2022/06/30 03:35:33;;;;;;;18.87;16.97;;;17.40;99.90;;;;;;5037844;28;20236;-80
2022/06/30 03:38:03;;;;;;;19.43;17.53;;;17.30;99.90;;;;;;5037105;28;20286;-83
2022/06/30 03:40:30;;;;;;;21.20;18.13;;;17.30;99.90;;;;;;5040697;28;20284;-81
2022/06/30 03:42:57;;;;;;;19.93;18.03;;;17.30;99.90;;;;;;5039767;28;20717;-81
2022/06/30 03:45:24;;;;;;;21.30;19.20;;;17.20;99.90;;;;;;5039147;28;20204;-81
2022/06/30 03:47:51;;;;;;;20.27;18.27;;;17.20;99.90;;;;;;5039184;28;20688;-81
2022/06/30 03:50:18;;;;;;;20.50;18.40;;;17.30;99.90;;;;;;5037259;28;20248;-83
2022/06/30 03:52:45;;;;;;;19.17;17.10;;;17.30;99.90;;;;;;5037062;28;20327;-82
2022/06/30 03:55:13;;;;;;;20.97;18.63;;;17.30;99.90;;;;;;5039393;28;20232;-81
2022/06/30 03:57:40;;;;;;;21.43;19.37;;;17.30;99.90;;;;;;5070572;28;20229;-80
2022/06/30 04:00:07;;;;;;;20.27;18.27;;;17.20;99.90;;;;;;5035235;28;20308;-81
2022/06/30 04:02:34;;;;;;;22.10;19.90;;;17.20;99.90;;;;;;5038373;28;20681;-80
2022/06/30 04:05:01;;;;;;;20.87;18.90;;;17.30;99.90;;;;;;5039980;28;20281;-81
2022/06/30 04:07:28;;;;;;;21.63;19.60;;;17.30;99.90;;;;;;5040194;28;20591;-81
2022/06/30 04:09:54;;;;;;;22.57;20.37;;;17.30;99.90;;;;;;5036970;28;20666;-82
2022/06/30 04:12:21;;;;;;;23.47;21.07;;;17.40;99.90;;;;;;5038606;28;20205;-83
2022/06/30 04:14:48;;;;;;;22.90;20.60;;;17.40;99.90;;;;;;5039507;28;20213;-82
2022/06/30 04:17:15;;;;;;;21.00;18.80;;;17.50;99.90;;;;;;5069337;28;20277;-82
2022/06/30 04:19:42;;;;;;;21.90;19.70;;;17.50;99.90;;;;;;5040077;28;20247;-82
2022/06/30 04:22:08;;;;;;;22.83;20.43;;;17.60;99.90;;;;;;5037610;28;20313;-82
2022/06/30 04:24:35;;;;;;;22.33;20.23;;;17.70;99.90;;;;;;5036686;28;20271;-82
2022/06/30 04:27:02;;;;;;;23.80;20.67;;;17.70;99.90;;;;;;5040823;28;20282;-83
2022/06/30 04:29:29;;;;;;;24.00;21.50;;;17.80;99.90;;;;;;5038149;28;20245;-82
2022/06/30 04:34:41;;;;;;;26.60;23.87;;;17.90;99.90;;;;;;5036159;28;20202;-82
2022/06/30 04:37:08;;;;;;;26.67;23.97;;;18.00;99.90;;;;;;5037723;28;20312;-82
2022/06/30 04:39:35;;;;;;;26.33;23.50;;;18.00;99.90;;;;;;5039885;28;20233;-81
2022/06/30 04:42:02;;;;;;;29.03;24.33;;;18.10;99.90;;;;;;5037865;28;20205;-82
2022/06/30 04:44:28;;;;;;;28.10;24.50;;;18.10;99.90;;;;;;5035938;28;20341;-81
2022/06/30 04:46:55;;;;;;;26.53;23.03;;;18.10;99.90;;;;;;5036620;28;20737;-82
2022/06/30 04:49:22;;;;;;;29.37;25.63;;;18.20;99.90;;;;;;5039915;28;20577;-81
2022/06/30 04:51:50;;;;;;;31.77;28.33;;;18.20;99.90;;;;;;5042837;28;20236;-83
2022/06/30 04:54:18;;;;;;;31.23;28.03;;;18.20;99.90;;;;;;5055168;28;20194;-81
2022/06/30 04:56:45;;;;;;;31.07;27.87;;;18.30;99.90;;;;;;5057648;28;20284;-82
2022/06/30 04:59:12;;;;;;;29.75;26.67;;;18.40;99.90;;;;;;5051248;28;20644;-84
2022/06/30 05:01:39;;;;;;;30.83;27.73;;;18.40;99.90;;;;;;5050623;28;20239;-82
2022/06/30 05:04:06;;;;;;;29.48;26.48;;;18.50;99.90;;;;;;5049225;28;20312;-82
2022/06/30 05:06:33;;;;;;;29.65;26.65;;;18.50;99.90;;;;;;5046195;28;20262;-84
2022/06/30 05:09:00;;;;;;;28.85;25.90;;;18.60;99.90;;;;;;5045933;28;20669;-83
2022/06/30 05:11:27;;;;;;;28.25;25.23;;;18.70;99.90;;;;;;5042244;28;20274;-83
2022/06/30 05:13:55;;;;;;;28.30;25.23;;;18.80;99.90;;;;;;5044334;28;20225;-82
2022/06/30 05:16:21;;;;;;;27.60;24.60;;;18.80;99.90;;;;;;5043871;28;20236;-84
2022/06/30 05:18:48;;;;;;;27.17;23.88;;;18.90;99.90;;;;;;5039240;28;20235;-82
2022/06/30 05:21:15;;;;;;;28.55;25.35;;;19.00;99.90;;;;;;5069015;28;20209;-83
2022/06/30 05:26:28;;;;;;;28.08;23.88;;;19.10;99.90;;;;;;5035011;28;20205;-84
2022/06/30 05:26:29;;;;;;;29.00;24.98;;;19.20;99.90;;;;;;5046454;28;20205;-82
2022/06/30 05:28:56;;;;;;;24.05;21.15;;;19.40;99.90;;;;;;5034895;28;20749;-83
2022/06/30 05:31:22;;;;;;;24.30;20.48;;;20.00;99.90;;;;;;5035062;28;20219;-83
2022/06/30 05:33:49;;;;;;;22.08;19.80;;;20.90;99.90;;;;;;5034563;28;20209;-81
2022/06/30 05:36:16;;;;;;;21.08;18.88;;;22.00;99.90;;;;;;5033667;28;20205;-80
2022/06/30 05:38:43;;;;;;;21.85;19.20;;;23.00;99.90;;;;;;5033954;28;20303;-81
2022/06/30 05:41:10;;;;;;;20.58;18.45;;;24.00;99.90;;;;;;5034583;28;20555;-82
2022/06/30 05:43:43;;;;;;;19.80;17.73;;;25.00;99.90;;;;;;5041442;28;20307;-81
2022/06/30 05:46:10;;;;;;;19.90;17.90;;;25.80;99.90;;;;;;5041777;28;20303;-81
2022/06/30 05:48:37;;;;;;;20.33;18.33;;;26.60;99.90;;;;;;5042795;28;20209;-80
2022/06/30 05:51:10;;;;;;;19.98;18.08;;;27.40;99.90;;;;;;5045558;28;20209;-82
2022/06/30 05:53:37;;;;;;;21.02;18.80;;;28.00;99.90;;;;;;5042088;28;20214;-81
2022/06/30 05:56:04;;;;;;;19.65;17.55;;;28.60;99.90;;;;;;5043650;28;20208;-80
2022/06/30 05:58:31;;;;;;;19.73;17.65;;;29.10;99.90;;;;;;5043131;28;20280;-81
2022/06/30 06:00:58;;;;;;;20.02;17.83;;;29.70;99.90;;;;;;5045360;28;20201;-80
2022/06/30 06:03:25;;;;;;;19.42;17.52;;;30.20;99.90;;;;;;5042413;28;20226;-81
2022/06/30 06:05:52;;;;;;;18.13;16.27;;;30.70;99.90;;;;;;5040969;28;20686;-81
2022/06/30 06:08:18;;;;;;;18.40;16.55;;;31.10;99.90;;;;;;5044455;28;20216;-80
2022/06/30 06:10:45;;;;;;;19.05;17.15;;;31.50;99.90;;;;;;5042450;28;20209;-81
2022/06/30 06:13:14;;;;;;;18.25;16.55;;;31.70;99.90;;;;;;5043304;28;20274;-81
2022/06/30 06:15:41;;;;;;;18.95;17.05;;;32.00;99.90;;;;;;5043620;28;20285;-79
2022/06/30 06:18:08;;;;;;;18.67;16.85;;;32.10;99.90;;;;;;5041535;28;20230;-78
2022/06/30 06:20:35;;;;;;;19.95;17.95;;;32.30;99.90;;;;;;5044919;28;20266;-80
2022/06/30 06:23:01;;;;;;;18.02;16.30;;;32.40;99.90;;;;;;5041270;28;20241;-80
2022/06/30 06:25:28;;;;;;;18.38;16.55;;;32.60;99.90;;;;;;5043030;28;20213;-80
2022/06/30 06:30:46;;;;;;;18.60;16.67;;;33.10;99.80;;;;;;5038512;28;20207;-80
2022/06/30 06:33:12;;;;;;;19.13;17.15;;;33.40;98.90;;;;;;5042354;28;20295;-81
2022/06/30 06:35:39;;;;;;;19.08;17.17;;;33.50;98.20;;;;;;5041180;28;20272;-79
2022/06/30 06:38:06;;;;;;;18.17;16.50;;;33.70;97.60;;;;;;5040331;28;20229;-79
2022/06/30 06:40:33;;;;;;;17.98;16.38;;;33.90;96.90;;;;;;5038521;28;20201;-79
2022/06/30 06:43:00;;;;;;;20.08;18.08;;;34.00;96.30;;;;;;5041383;28;20557;-81
2022/06/30 06:45:26;;;;;;;18.42;16.73;;;34.20;95.80;;;;;;5039651;28;20290;-80
2022/06/30 06:47:53;;;;;;;19.77;17.70;;;34.30;95.30;;;;;;5040065;28;20216;-81
2022/06/30 06:50:20;;;;;;;20.00;18.10;;;34.60;94.60;;;;;;5038057;28;20209;-81
2022/06/30 06:52:47;;;;;;;19.50;17.58;;;34.70;94.10;;;;;;5041121;28;20563;-80
2022/06/30 06:55:16;;;;;;;20.17;18.08;;;34.70;93.50;;;;;;5037372;28;20252;-80
2022/06/30 06:57:43;;;;;;;20.08;18.17;;;34.90;93.00;;;;;;5039888;28;20244;-79
2022/06/30 07:00:14;;;;;;;20.05;18.05;;;35.00;92.90;;;;;;5038833;28;20215;-80
2022/06/30 07:02:41;;;;;;;20.42;18.63;;;35.30;92.20;;;;;;5040430;28;20216;-79
2022/06/30 07:05:09;;;;;;;20.00;17.95;;;35.40;91.70;;;;;;5028676;28;20530;-79
2022/06/30 07:07:37;;;;;;;20.30;18.23;;;35.50;92.00;;;;;;5028994;28;20275;-80
2022/06/30 07:10:05;;;;;;;21.73;19.55;;;35.70;91.60;;;;;;5029432;28;20259;-79
2022/06/30 07:12:33;;;;;;;21.48;19.20;;;35.80;91.10;;;;;;5028607;28;20304;-81
2022/06/30 07:15:00;;;;;;;21.75;19.63;;;35.70;91.00;;;;;;5029168;28;20263;-81
2022/06/30 07:17:26;;;;;;;22.15;19.85;;;35.60;90.20;;;;;;5036244;28;20240;-80
2022/06/30 07:19:54;;;;;;;20.70;18.73;;;35.70;89.70;;;;;;5037624;28;20259;-80
2022/06/30 07:22:21;;;;;;;19.80;17.75;;;35.80;90.00;;;;;;5040968;28;20270;-80
2022/06/30 07:24:48;;;;;;;19.13;17.13;;;35.90;89.80;;;;;;5038150;28;20200;-80
2022/06/30 07:27:14;;;;;;;19.35;17.30;;;36.20;88.70;;;;;;5039353;28;20212;-80
2022/06/30 07:29:41;;;;;;;20.25;18.23;;;36.20;87.70;;;;;;5041071;28;20266;-80
2022/06/30 07:32:09;;;;;;;19.10;17.35;;;36.40;86.70;;;;;;5037390;28;20670;-79
2022/06/30 07:34:36;;;;;;;18.77;16.58;;;36.70;85.60;;;;;;5039889;28;20208;-80
2022/06/30 07:37:03;;;;;;;20.30;17.38;;;37.00;84.60;;;;;;5037510;28;20209;-81
2022/06/30 07:39:29;;;;;;;17.50;15.70;;;37.10;84.40;;;;;;5038444;28;20212;-78
2022/06/30 07:41:56;;;;;;;17.38;15.77;;;37.00;84.30;;;;;;5038920;28;20213;-80
2022/06/30 07:44:23;;;;;;;14.68;13.10;;;37.10;83.70;;;;;;5037513;28;20229;-79
2022/06/30 07:46:50;;;;;;;12.52;11.27;;;37.10;81.10;;;;;;5068297;28;20224;-80
2022/06/30 07:49:17;;;;;;;12.40;11.20;;;37.10;80.40;;;;;;5039167;28;20204;-82
2022/06/30 07:51:44;;;;;;;11.95;10.85;;;37.10;79.90;;;;;;5037825;28;20276;-80
2022/06/30 07:54:11;;;;;;;11.50;10.32;;;37.30;80.70;;;;;;5040770;28;20205;-81
2022/06/30 07:56:38;;;;;;;10.77;9.77;;;36.80;78.80;;;;;;5037518;28;20209;-81
2022/06/30 07:59:04;;;;;;;8.65;7.85;;;36.70;78.70;;;;;;5036577;28;20762;-81
2022/06/30 08:01:31;;;;;;;4.93;4.45;;;36.80;78.80;;;;;;5039916;28;20209;-80
2022/06/30 08:03:58;;;;;;;4.47;3.92;;;36.90;75.50;;;;;;5039174;28;20688;-82
2022/06/30 08:06:25;;;;;;;5.07;4.07;;;36.70;72.80;;;;;;5038152;28;20209;-82
2022/06/30 08:08:52;;;;;;;6.65;3.78;;;36.30;72.10;;;;;;5036687;28;20219;-82
2022/06/30 08:11:19;;;;;;;7.95;3.95;;;36.10;71.90;;;;;;5037456;28;20760;-80
2022/06/30 08:13:47;;;;;;;4.57;4.03;;;36.10;71.00;;;;;;5038053;28;20232;-83
2022/06/30 08:16:15;;;;;;;5.53;4.07;;;35.90;71.30;;;;;;5035995;28;20237;-81
2022/06/30 08:18:42;;;;;;;6.22;3.30;;;35.80;71.50;;;;;;5039828;28;20282;-80
2022/06/30 08:21:09;;;;;;;11.48;4.97;;;35.90;71.80;;;;;;5037891;28;20209;-82
2022/06/30 08:23:37;;;;;;;9.35;4.93;;;36.10;71.00;;;;;;5038645;28;20221;-82
2022/06/30 08:26:04;;;;;;;7.38;5.00;;;35.90;70.60;;;;;;5038022;28;20209;-83
2022/06/30 08:28:34;;;;;;;6.40;5.80;;;35.80;71.90;;;;;;5041081;28;20297;-82
2022/06/30 08:31:02;;;;;;;8.45;6.10;;;35.80;72.60;;;;;;5037347;28;20670;-83
2022/06/30 08:33:29;;;;;;;8.93;6.30;;;35.50;73.00;;;;;;5038783;28;20599;-80
2022/06/30 08:35:56;;;;;;;10.23;6.00;;;35.40;74.00;;;;;;5038666;28;20224;-82
2022/06/30 08:38:27;;;;;;;7.90;6.82;;;35.50;74.40;;;;;;5036962;28;20235;-82
2022/06/30 08:43:42;;;;;;;8.55;7.75;;;35.00;73.40;;;;;;5038941;28;20719;-83
2022/06/30 08:46:11;;;;;;;13.25;9.77;;;35.00;72.90;;;;;;5036138;28;20209;-81
2022/06/30 08:48:39;;;;;;;12.27;10.23;;;34.10;74.80;;;;;;5038257;28;20303;-81
2022/06/30 08:51:07;;;;;;;12.20;10.60;;;34.10;76.20;;;;;;5037131;28;20236;-83
2022/06/30 08:53:40;;;;;;;12.77;11.50;;;34.10;77.60;;;;;;5035834;28;20220;-80
2022/06/30 08:56:07;;;;;;;13.38;10.38;;;33.90;78.20;;;;;;5036321;28;20597;-78
2022/06/30 08:58:35;;;;;;;11.63;10.30;;;34.00;77.00;;;;;;5036299;28;20232;-81
2022/06/30 09:01:03;;;;;;;10.70;9.20;;;34.10;76.70;;;;;;5039755;28;20208;-81
2022/06/30 09:03:31;;;;;;;9.98;8.27;;;34.20;76.20;;;;;;5036292;28;20215;-83
2022/06/30 09:05:58;;;;;;;10.13;7.50;;;33.90;75.40;;;;;;5038867;28;20238;-82
2022/06/30 09:08:26;;;;;;;9.30;7.68;;;33.70;75.60;;;;;;5036159;28;20227;-80
2022/06/30 09:10:54;;;;;;;9.27;8.30;;;33.70;75.60;;;;;;5037066;28;20236;-81
2022/06/30 09:13:23;;;;;;;8.73;7.18;;;34.00;75.60;;;;;;5037666;28;20731;-81
2022/06/30 09:15:50;;;;;;;9.43;7.55;;;34.00;75.80;;;;;;5035813;28;20284;-82
2022/06/30 09:18:22;;;;;;;8.32;5.68;;;34.10;74.60;;;;;;5038574;28;20267;-80
2022/06/30 09:20:49;;;;;;;6.45;5.18;;;34.20;74.60;;;;;;5036255;28;20209;-82
2022/06/30 09:23:24;;;;;;;12.43;7.38;;;34.20;73.20;;;;;;5038836;28;20237;-82
2022/06/30 09:25:54;;;;;;;8.75;7.57;;;34.00;73.70;;;;;;5035223;28;20731;-81
2022/06/30 09:28:40;;;;;;;12.45;9.40;;;33.90;74.90;;;;;;5037487;28;20225;-82
2022/06/30 09:31:42;;;;;;;11.05;9.70;;;33.80;78.10;;;;;;5036335;28;20295;-81
2022/06/30 09:34:21;;;;;;;9.98;9.00;;;33.80;79.60;;;;;;5037337;28;20197;-84
2022/06/30 09:36:50;;;;;;;11.48;7.53;;;33.70;79.00;;;;;;5027576;28;20303;-81
2022/06/30 09:39:19;;;;;;;12.98;11.57;;;33.70;78.10;;;;;;5026845;28;20771;-80
2022/06/30 09:41:48;;;;;;;10.80;8.80;;;33.60;79.40;;;;;;5026492;28;20213;-80
2022/06/30 09:44:23;;;;;;;10.93;9.05;;;33.60;79.40;;;;;;5026745;28;20384;-78
2022/06/30 09:46:58;;;;;;;9.82;8.77;;;33.60;79.10;;;;;;5029731;28;20209;-78
2022/06/30 09:49:42;;;;;;;9.82;8.35;;;33.60;81.50;;;;;;5034760;28;20489;-81
2022/06/30 09:52:17;;;;;;;8.77;7.78;;;33.60;80.60;;;;;;5036717;28;20206;-79
2022/06/30 09:55:00;;;;;;;10.77;9.15;;;33.70;80.60;;;;;;5035007;28;20225;-80
2022/06/30 09:57:43;;;;;;;11.75;5.90;;;33.70;79.10;;;;;;5038195;28;20229;-81
2022/06/30 10:00:11;;;;;;;7.38;5.63;;;33.50;78.40;;;;;;5036216;28;20213;-79
2022/06/30 10:02:46;;;;;;;11.23;6.72;;;33.50;78.50;;;;;;5035356;28;20736;-78
2022/06/30 10:05:15;;;;;;;6.25;5.00;;;33.50;77.30;;;;;;5034952;28;20658;-79
2022/06/30 10:07:43;;;;;;;10.57;4.85;;;33.50;77.30;;;;;;5037847;28;20217;-78
2022/06/30 10:10:16;;;;;;;6.20;4.07;;;33.40;76.80;;;;;;5037004;28;20206;-80
2022/06/30 10:12:45;;;;;;;5.95;4.43;;;33.30;76.50;;;;;;5038271;28;20674;-81
2022/06/30 10:15:14;;;;;;;5.43;4.85;;;33.30;76.80;;;;;;5037562;28;20245;-80
2022/06/30 10:17:44;;;;;;;5.88;3.92;;;33.20;77.60;;;;;;5040749;28;20240;-79
2022/06/30 10:20:19;;;;;;;6.55;5.00;;;33.20;78.60;;;;;;5041175;28;20585;-77
2022/06/30 10:22:46;;;;;;;5.43;3.45;;;33.10;79.10;;;;;;5038464;28;20205;-78
2022/06/30 10:25:13;;;;;;;6.45;4.05;;;33.20;79.00;;;;;;5041285;28;20259;-78
2022/06/30 10:27:41;;;;;;;6.82;3.30;;;33.20;78.20;;;;;;5040065;28;20222;-79
2022/06/30 10:30:12;;;;;;;4.97;3.10;;;33.20;78.00;;;;;;5040427;28;20220;-80
2022/06/30 10:32:57;;;;;;;8.30;3.33;;;33.20;77.40;;;;;;5041203;28;20551;-79
2022/06/30 10:35:32;;;;;;;3.97;2.97;;;33.10;77.40;;;;;;5056615;28;20224;-79
2022/06/30 10:38:22;;;;;;;4.85;3.08;;;32.90;77.10;;;;;;5039128;28;20202;-82
2022/06/30 10:41:00;;;;;;;5.93;2.80;;;32.70;77.80;;;;;;5038513;28;20206;-81
2022/06/30 10:43:32;;;;;;;5.15;2.70;;;31.80;77.50;;;;;;5038299;28;20229;-78
2022/06/30 10:46:04;;;;;;;5.70;2.53;;;31.90;79.10;;;;;;5041585;28;20217;-80
2022/06/30 10:48:50;;;;;;;4.38;2.33;;;31.90;78.00;;;;;;5037671;28;20209;-80
2022/06/30 10:51:17;;;;;;;6.13;2.38;;;32.10;77.00;;;;;;5038378;28;20213;-82
2022/06/30 10:53:44;;;;;;;5.38;2.20;;;32.10;77.20;;;;;;5038889;28;20324;-80
2022/06/30 10:56:17;;;;;;;3.75;1.88;;;32.10;78.00;;;;;;5040679;28;20559;-81
2022/06/30 10:59:06;;;;;;;5.35;2.40;;;32.30;77.80;;;;;;5037451;28;20325;-81
2022/06/30 11:01:34;;;;;;;5.55;2.72;;;32.20;76.40;;;;;;5039645;28;20210;-81
2022/06/30 11:04:02;;;;;;;3.45;2.35;;;32.00;76.90;;;;;;5029519;28;20339;-79
2022/06/30 11:07:04;;;;;;;3.50;2.03;;;32.10;76.70;;;;;;5029657;28;20245;-80
2022/06/30 11:09:49;;;;;;;4.40;2.22;;;32.20;76.30;;;;;;5026581;28;20210;-81
2022/06/30 11:12:19;;;;;;;5.07;2.63;;;32.20;76.80;;;;;;5036785;28;20217;-81
2022/06/30 11:14:48;;;;;;;4.38;2.30;;;32.20;77.40;;;;;;5038492;28;20874;-82
2022/06/30 11:17:16;;;;;;;7.20;2.40;;;32.30;78.30;;;;;;5040936;28;20701;-80
2022/06/30 11:19:43;;;;;;;7.40;3.00;;;32.40;78.30;;;;;;5036697;28;20234;-79
2022/06/30 11:22:15;;;;;;;5.53;2.30;;;32.40;77.70;;;;;;5039203;28;20256;-82
2022/06/30 11:24:44;;;;;;;7.65;2.53;;;32.40;77.10;;;;;;5039773;28;20633;-79
2022/06/30 11:27:17;;;;;;;4.43;3.33;;;32.40;76.90;;;;;;5036602;28;20729;-79
2022/06/30 11:29:48;;;;;;;5.97;3.47;;;32.40;78.50;;;;;;5039811;28;20213;-80
2022/06/30 11:32:22;;;;;;;5.10;3.17;;;32.60;78.70;;;;;;5039513;28;20292;-81
2022/06/30 11:34:49;;;;;;;5.68;2.80;;;32.50;79.70;;;;;;5037105;28;20305;-79
2022/06/30 11:37:24;;;;;;;6.70;3.08;;;32.60;79.90;;;;;;5039966;28;20212;-80
2022/06/30 11:39:58;;;;;;;4.43;2.60;;;32.80;80.00;;;;;;5039376;28;20285;-79
2022/06/30 11:42:25;;;;;;;5.50;2.90;;;33.00;80.70;;;;;;5028626;28;20313;-78
2022/06/30 11:44:52;;;;;;;7.28;3.67;;;33.00;79.60;;;;;;5033059;28;20210;-80
2022/06/30 11:47:21;;;;;;;7.82;4.72;;;33.20;81.10;;;;;;5028950;28;20303;-79
2022/06/30 11:49:57;;;;;;;6.35;4.75;;;33.30;82.90;;;;;;5028869;28;20230;-79
2022/06/30 11:52:31;;;;;;;10.30;4.50;;;33.40;83.50;;;;;;5028438;28;20206;-78
2022/06/30 11:55:03;;;;;;;9.55;4.65;;;33.30;83.90;;;;;;5030868;28;20214;-78
2022/06/30 11:57:32;;;;;;;6.88;4.70;;;33.20;83.70;;;;;;5035688;28;20593;-78
2022/06/30 12:00:02;;;;;;;9.23;4.80;;;33.00;84.00;;;;;;5036856;28;20236;-78
2022/06/30 12:02:30;;;;;;;9.82;4.85;;;32.50;85.00;;;;;;5040414;28;20255;-80
2022/06/30 12:04:59;;;;;;;7.60;5.15;;;32.10;86.20;;;;;;5038641;28;20218;-80
2022/06/30 12:07:28;;;;;;;7.07;4.72;;;31.60;86.40;;;;;;5037216;28;20214;-83
2022/06/30 12:10:00;;;;;;;7.43;3.95;;;31.40;87.40;;;;;;5036878;28;20256;-81
2022/06/30 12:12:29;;;;;;;8.63;4.68;;;31.60;88.80;;;;;;5038108;28;20275;-80
2022/06/30 12:14:58;;;;;;;6.97;4.82;;;31.60;88.20;;;;;;5039344;28;20206;-80
2022/06/30 12:17:31;;;;;;;8.75;4.85;;;31.70;88.20;;;;;;5036032;28;20775;-79
2022/06/30 12:19:58;;;;;;;6.57;4.10;;;31.60;87.80;;;;;;5038831;28;20637;-80
2022/06/30 12:22:25;;;;;;;7.32;4.45;;;31.60;88.30;;;;;;5039886;28;20667;-79
2022/06/30 12:24:53;;;;;;;10.30;4.72;;;31.60;88.40;;;;;;5037297;28;20226;-79
2022/06/30 12:27:37;;;;;;;8.18;4.57;;;31.60;88.40;;;;;;5039092;28;20213;-77
2022/06/30 12:30:17;;;;;;;9.50;4.60;;;31.80;87.20;;;;;;5038748;28;20210;-80
2022/06/30 12:32:54;;;;;;;11.82;5.15;;;31.80;86.90;;;;;;5036828;28;20214;-79
2022/06/30 12:35:23;;;;;;;8.07;4.72;;;32.00;86.50;;;;;;5035902;28;20591;-78
2022/06/30 12:37:55;;;;;;;8.27;3.65;;;32.00;86.20;;;;;;5036640;28;20214;-82
2022/06/30 12:40:28;;;;;;;7.63;3.70;;;32.20;87.00;;;;;;5038280;28;20224;-82
2022/06/30 12:42:57;;;;;;;8.93;4.28;;;32.20;86.50;;;;;;5037841;28;20217;-79
2022/06/30 12:45:44;;;;;;;7.88;4.25;;;32.10;86.50;;;;;;5036163;28;20214;-80
2022/06/30 12:48:13;;;;;;;7.03;3.88;;;32.20;85.60;;;;;;5036760;28;20545;-78
2022/06/30 12:50:43;;;;;;;7.60;4.15;;;32.00;86.10;;;;;;5036355;28;20206;-80
2022/06/30 12:53:22;;;;;;;6.15;3.25;;;32.00;86.70;;;;;;5035996;28;20210;-79
2022/06/30 12:56:00;;;;;;;6.72;3.50;;;32.10;86.40;;;;;;5035709;28;20225;-78